sensor_id;sensor_type;location;lat;lon;timestamp;pressure;altitude;pressure_sealevel;temperature;humidity
23318;BME280;11831;55.918;37.746;2023-06-24T00:00:47;98759.50;;;18.33;0.00
23318;BME280;11831;55.918;37.746;2023-06-24T00:03:13;98767.84;;;18.36;0.00
23318;BME280;11831;55.918;37.746;2023-06-24T00:05:43;98763.69;;;18.76;0.00
23318;BME280;11831;55.918;37.746;2023-06-24T00:08:19;98752.47;;;18.97;0.00
23318;BME280;11831;55.918;37.746;2023-06-24T00:10:47;98740.44;;;18.56;0.00
23318;BME280;11831;55.918;37.746;2023-06-24T00:13:15;98748.28;;;18.58;0.00
23318;BME280;11831;55.918;37.746;2023-06-24T00:15:42;98741.34;;;18.52;0.00
23318;BME280;11831;55.918;37.746;2023-06-24T00:18:10;98745.53;;;18.44;0.00
23318;BME280;11831;55.918;37.746;2023-06-24T00:20:37;98744.94;;;18.47;0.00
23318;BME280;11831;55.918;37.746;2023-06-24T00:23:03;98740.56;;;18.33;0.00
23318;BME280;11831;55.918;37.746;2023-06-24T00:25:30;98738.25;;;18.26;0.00
23318;BME280;11831;55.918;37.746;2023-06-24T00:27:57;98744.72;;;18.11;0.00
23318;BME280;11831;55.918;37.746;2023-06-24T00:30:25;98722.19;;;17.97;0.00
23318;BME280;11831;55.918;37.746;2023-06-24T00:32:52;98748.22;;;18.12;0.00
23318;BME280;11831;55.918;37.746;2023-06-24T00:35:18;98730.50;;;18.00;0.00
23318;BME280;11831;55.918;37.746;2023-06-24T00:37:45;98735.34;;;17.85;0.00
23318;BME280;11831;55.918;37.746;2023-06-24T00:40:12;98729.94;;;18.04;0.00
23318;BME280;11831;55.918;37.746;2023-06-24T00:42:45;98734.72;;;18.25;0.00
23318;BME280;11831;55.918;37.746;2023-06-24T00:45:12;98731.84;;;17.84;0.00
23318;BME280;11831;55.918;37.746;2023-06-24T00:47:40;98738.56;;;17.68;0.00
23318;BME280;11831;55.918;37.746;2023-06-24T00:50:07;98734.50;;;17.65;0.00
23318;BME280;11831;55.918;37.746;2023-06-24T00:52:34;98728.41;;;17.79;0.00
23318;BME280;11831;55.918;37.746;2023-06-24T00:55:04;98737.41;;;17.93;0.00
23318;BME280;11831;55.918;37.746;2023-06-24T00:57:31;98728.25;;;17.89;0.00
23318;BME280;11831;55.918;37.746;2023-06-24T00:59:59;98735.66;;;17.59;0.00
23318;BME280;11831;55.918;37.746;2023-06-24T01:02:26;98735.50;;;17.93;0.00
23318;BME280;11831;55.918;37.746;2023-06-24T01:04:54;98734.13;;;17.77;0.00
23318;BME280;11831;55.918;37.746;2023-06-24T01:07:21;98730.41;;;17.49;0.00
23318;BME280;11831;55.918;37.746;2023-06-24T01:09:49;98707.75;;;17.45;0.00
23318;BME280;11831;55.918;37.746;2023-06-24T01:12:16;98711.66;;;17.34;0.00
23318;BME280;11831;55.918;37.746;2023-06-24T01:14:42;98720.28;;;17.36;0.00
23318;BME280;11831;55.918;37.746;2023-06-24T01:17:14;98712.91;;;17.23;0.00
23318;BME280;11831;55.918;37.746;2023-06-24T01:25:19;98723.50;;;17.38;0.00
23318;BME280;11831;55.918;37.746;2023-06-24T01:30:51;98714.00;;;17.41;0.00
23318;BME280;11831;55.918;37.746;2023-06-24T01:33:32;98713.53;;;17.57;0.00
23318;BME280;11831;55.918;37.746;2023-06-24T01:36:02;98721.41;;;17.54;0.00
23318;BME280;11831;55.918;37.746;2023-06-24T01:38:48;98739.41;;;17.21;0.00
23318;BME280;11831;55.918;37.746;2023-06-24T01:41:22;98722.63;;;17.24;0.00
23318;BME280;11831;55.918;37.746;2023-06-24T01:43:53;98730.66;;;17.29;0.00
23318;BME280;11831;55.918;37.746;2023-06-24T01:46:22;98722.25;;;17.30;0.00
23318;BME280;11831;55.918;37.746;2023-06-24T01:48:49;98721.37;;;17.35;0.00
23318;BME280;11831;55.918;37.746;2023-06-24T01:51:19;98722.34;;;17.44;0.00
23318;BME280;11831;55.918;37.746;2023-06-24T01:53:52;98727.59;;;17.35;0.00
23318;BME280;11831;55.918;37.746;2023-06-24T01:56:21;98728.47;;;17.31;0.00
23318;BME280;11831;55.918;37.746;2023-06-24T01:58:51;98740.88;;;17.32;0.00
23318;BME280;11831;55.918;37.746;2023-06-24T02:01:19;98734.38;;;17.09;0.00
23318;BME280;11831;55.918;37.746;2023-06-24T02:03:48;98735.75;;;17.06;0.00
23318;BME280;11831;55.918;37.746;2023-06-24T02:06:16;98733.19;;;16.96;0.00
23318;BME280;11831;55.918;37.746;2023-06-24T02:08:45;98743.87;;;17.30;0.00
23318;BME280;11831;55.918;37.746;2023-06-24T02:11:14;98725.94;;;17.16;0.00
23318;BME280;11831;55.918;37.746;2023-06-24T02:13:43;98725.88;;;17.21;0.00
23318;BME280;11831;55.918;37.746;2023-06-24T02:16:11;98725.31;;;17.24;0.00
23318;BME280;11831;55.918;37.746;2023-06-24T02:18:40;98719.09;;;17.23;0.00
23318;BME280;11831;55.918;37.746;2023-06-24T02:21:10;98713.50;;;17.38;0.00
23318;BME280;11831;55.918;37.746;2023-06-24T02:23:38;98713.94;;;17.69;0.00
23318;BME280;11831;55.918;37.746;2023-06-24T02:26:06;98717.62;;;17.55;0.00
23318;BME280;11831;55.918;37.746;2023-06-24T02:28:33;98712.19;;;17.12;0.00
23318;BME280;11831;55.918;37.746;2023-06-24T02:31:01;98735.75;;;17.54;0.00
23318;BME280;11831;55.918;37.746;2023-06-24T02:33:28;98714.38;;;17.34;0.00
23318;BME280;11831;55.918;37.746;2023-06-24T02:35:55;98709.97;;;17.19;0.00
23318;BME280;11831;55.918;37.746;2023-06-24T02:38:22;98720.03;;;17.56;0.00
23318;BME280;11831;55.918;37.746;2023-06-24T02:40:49;98725.41;;;17.37;0.00
23318;BME280;11831;55.918;37.746;2023-06-24T02:43:17;98720.50;;;17.39;0.00
23318;BME280;11831;55.918;37.746;2023-06-24T02:45:45;98737.94;;;17.28;0.00
23318;BME280;11831;55.918;37.746;2023-06-24T02:48:12;98740.06;;;17.31;0.00
23318;BME280;11831;55.918;37.746;2023-06-24T02:50:41;98738.81;;;17.24;0.00
23318;BME280;11831;55.918;37.746;2023-06-24T02:53:14;98738.06;;;16.94;0.00
23318;BME280;11831;55.918;37.746;2023-06-24T02:55:42;98737.31;;;17.13;0.00
23318;BME280;11831;55.918;37.746;2023-06-24T02:58:10;98749.84;;;17.27;0.00
23318;BME280;11831;55.918;37.746;2023-06-24T03:00:38;98743.00;;;17.35;0.00
23318;BME280;11831;55.918;37.746;2023-06-24T03:03:06;98749.25;;;17.54;0.00
23318;BME280;11831;55.918;37.746;2023-06-24T03:05:34;98731.88;;;17.18;0.00
23318;BME280;11831;55.918;37.746;2023-06-24T03:08:01;98752.78;;;17.31;0.00
23318;BME280;11831;55.918;37.746;2023-06-24T03:10:30;98738.41;;;17.12;0.00
23318;BME280;11831;55.918;37.746;2023-06-24T03:12:56;98750.66;;;17.28;0.00
23318;BME280;11831;55.918;37.746;2023-06-24T03:15:23;98746.25;;;17.56;0.00
23318;BME280;11831;55.918;37.746;2023-06-24T03:17:51;98738.09;;;17.13;0.00
23318;BME280;11831;55.918;37.746;2023-06-24T03:20:18;98747.06;;;17.08;0.00
23318;BME280;11831;55.918;37.746;2023-06-24T03:22:46;98736.06;;;17.29;0.00
23318;BME280;11831;55.918;37.746;2023-06-24T03:25:12;98741.81;;;17.22;0.00
23318;BME280;11831;55.918;37.746;2023-06-24T03:27:39;98743.87;;;17.06;0.00
23318;BME280;11831;55.918;37.746;2023-06-24T03:30:06;98736.56;;;17.31;0.00
23318;BME280;11831;55.918;37.746;2023-06-24T03:32:33;98752.59;;;16.98;0.00
23318;BME280;11831;55.918;37.746;2023-06-24T03:35:03;98746.41;;;16.98;0.00
23318;BME280;11831;55.918;37.746;2023-06-24T03:37:31;98743.06;;;17.06;0.00
23318;BME280;11831;55.918;37.746;2023-06-24T03:39:58;98758.19;;;16.78;0.00
23318;BME280;11831;55.918;37.746;2023-06-24T03:42:25;98760.78;;;16.59;0.00
23318;BME280;11831;55.918;37.746;2023-06-24T03:44:51;98748.12;;;16.89;0.00
23318;BME280;11831;55.918;37.746;2023-06-24T03:47:18;98745.69;;;17.11;0.00
23318;BME280;11831;55.918;37.746;2023-06-24T03:49:44;98756.53;;;16.82;0.00
23318;BME280;11831;55.918;37.746;2023-06-24T03:52:11;98764.00;;;17.19;0.00
23318;BME280;11831;55.918;37.746;2023-06-24T03:54:37;98760.66;;;17.27;0.00
23318;BME280;11831;55.918;37.746;2023-06-24T03:57:07;98767.81;;;17.13;0.00
23318;BME280;11831;55.918;37.746;2023-06-24T03:59:34;98758.91;;;16.89;0.00
23318;BME280;11831;55.918;37.746;2023-06-24T04:02:01;98759.84;;;17.03;0.00
23318;BME280;11831;55.918;37.746;2023-06-24T04:04:27;98762.56;;;17.27;0.00
23318;BME280;11831;55.918;37.746;2023-06-24T04:06:54;98745.69;;;17.11;0.00
23318;BME280;11831;55.918;37.746;2023-06-24T04:09:20;98761.47;;;17.28;0.00
23318;BME280;11831;55.918;37.746;2023-06-24T04:11:48;98762.31;;;17.23;0.00
23318;BME280;11831;55.918;37.746;2023-06-24T04:14:15;98764.16;;;17.04;0.00
23318;BME280;11831;55.918;37.746;2023-06-24T04:16:41;98769.28;;;17.29;0.00
23318;BME280;11831;55.918;37.746;2023-06-24T04:19:08;98783.22;;;17.36;0.00
23318;BME280;11831;55.918;37.746;2023-06-24T04:21:34;98773.22;;;17.13;0.00
23318;BME280;11831;55.918;37.746;2023-06-24T04:24:01;98774.16;;;17.51;0.00
23318;BME280;11831;55.918;37.746;2023-06-24T04:26:28;98759.63;;;17.23;0.00
23318;BME280;11831;55.918;37.746;2023-06-24T04:28:54;98775.19;;;17.55;0.00
23318;BME280;11831;55.918;37.746;2023-06-24T04:31:21;98747.31;;;17.36;0.00
23318;BME280;11831;55.918;37.746;2023-06-24T04:33:48;98761.66;;;17.07;0.00
23318;BME280;11831;55.918;37.746;2023-06-24T04:36:14;98767.81;;;17.13;0.00
23318;BME280;11831;55.918;37.746;2023-06-24T04:38:41;98767.59;;;17.33;0.00
23318;BME280;11831;55.918;37.746;2023-06-24T04:41:07;98770.88;;;17.30;0.00
23318;BME280;11831;55.918;37.746;2023-06-24T04:43:34;98768.00;;;17.46;0.00
23318;BME280;11831;55.918;37.746;2023-06-24T04:46:02;98781.44;;;17.75;0.00
23318;BME280;11831;55.918;37.746;2023-06-24T04:48:28;98786.56;;;17.28;0.00
23318;BME280;11831;55.918;37.746;2023-06-24T04:50:54;98786.41;;;17.20;0.00
23318;BME280;11831;55.918;37.746;2023-06-24T04:53:22;98789.91;;;17.44;0.00
23318;BME280;11831;55.918;37.746;2023-06-24T04:55:48;98800.38;;;17.51;0.00
23318;BME280;11831;55.918;37.746;2023-06-24T04:58:15;98812.19;;;16.78;0.00
23318;BME280;11831;55.918;37.746;2023-06-24T05:00:42;98826.75;;;16.77;0.00
23318;BME280;11831;55.918;37.746;2023-06-24T05:03:09;98799.63;;;17.21;0.00
23318;BME280;11831;55.918;37.746;2023-06-24T05:05:35;98799.41;;;17.18;0.00
23318;BME280;11831;55.918;37.746;2023-06-24T05:08:02;98806.34;;;17.24;0.00
23318;BME280;11831;55.918;37.746;2023-06-24T05:10:29;98827.34;;;17.03;0.00
23318;BME280;11831;55.918;37.746;2023-06-24T05:12:55;98801.53;;;17.21;0.00
23318;BME280;11831;55.918;37.746;2023-06-24T05:15:22;98806.09;;;17.44;0.00
23318;BME280;11831;55.918;37.746;2023-06-24T05:17:48;98804.50;;;17.19;0.00
23318;BME280;11831;55.918;37.746;2023-06-24T05:20:15;98800.25;;;17.37;0.00
23318;BME280;11831;55.918;37.746;2023-06-24T05:22:43;98810.22;;;17.13;0.00
23318;BME280;11831;55.918;37.746;2023-06-24T05:25:10;98805.53;;;17.71;0.00
23318;BME280;11831;55.918;37.746;2023-06-24T05:27:36;98792.72;;;17.82;0.00
23318;BME280;11831;55.918;37.746;2023-06-24T05:30:04;98793.72;;;17.67;0.00
23318;BME280;11831;55.918;37.746;2023-06-24T05:32:33;98789.53;;;17.75;0.00
23318;BME280;11831;55.918;37.746;2023-06-24T05:34:59;98792.28;;;17.93;0.00
23318;BME280;11831;55.918;37.746;2023-06-24T05:37:25;98759.41;;;17.86;0.00
23318;BME280;11831;55.918;37.746;2023-06-24T05:39:52;98783.22;;;17.60;0.00
23318;BME280;11831;55.918;37.746;2023-06-24T05:42:19;98794.63;;;18.00;0.00
23318;BME280;11831;55.918;37.746;2023-06-24T05:44:45;98785.12;;;17.84;0.00
23318;BME280;11831;55.918;37.746;2023-06-24T05:47:11;98782.03;;;17.72;0.00
23318;BME280;11831;55.918;37.746;2023-06-24T05:49:38;98797.53;;;18.04;0.00
23318;BME280;11831;55.918;37.746;2023-06-24T05:52:05;98762.00;;;17.73;0.00
23318;BME280;11831;55.918;37.746;2023-06-24T05:54:32;98797.53;;;17.85;0.00
23318;BME280;11831;55.918;37.746;2023-06-24T05:56:58;98795.66;;;18.04;0.00
23318;BME280;11831;55.918;37.746;2023-06-24T05:59:25;98796.00;;;17.79;0.00
23318;BME280;11831;55.918;37.746;2023-06-24T06:01:51;98795.78;;;17.94;0.00
23318;BME280;11831;55.918;37.746;2023-06-24T06:04:18;98813.69;;;17.66;0.00
23318;BME280;11831;55.918;37.746;2023-06-24T06:06:44;98794.09;;;19.33;0.00
23318;BME280;11831;55.918;37.746;2023-06-24T06:09:11;98789.34;;;19.80;0.00
23318;BME280;11831;55.918;37.746;2023-06-24T06:11:38;98783.16;;;19.66;0.00
23318;BME280;11831;55.918;37.746;2023-06-24T06:14:04;98785.97;;;20.69;0.00
23318;BME280;11831;55.918;37.746;2023-06-24T06:16:30;98794.69;;;19.58;0.00
23318;BME280;11831;55.918;37.746;2023-06-24T06:18:57;98789.81;;;20.99;0.00
23318;BME280;11831;55.918;37.746;2023-06-24T06:21:24;98792.69;;;19.77;0.00
23318;BME280;11831;55.918;37.746;2023-06-24T06:23:51;98790.91;;;20.08;0.00
23318;BME280;11831;55.918;37.746;2023-06-24T06:26:17;98790.06;;;19.72;0.00
23318;BME280;11831;55.918;37.746;2023-06-24T06:28:44;98776.06;;;21.26;0.00
23318;BME280;11831;55.918;37.746;2023-06-24T06:31:10;98792.50;;;21.21;0.00
23318;BME280;11831;55.918;37.746;2023-06-24T06:33:37;98802.91;;;20.30;0.00
23318;BME280;11831;55.918;37.746;2023-06-24T06:36:04;98799.59;;;20.19;0.00
23318;BME280;11831;55.918;37.746;2023-06-24T06:38:32;98795.47;;;20.80;0.00
23318;BME280;11831;55.918;37.746;2023-06-24T06:40:59;98802.25;;;20.46;0.00
23318;BME280;11831;55.918;37.746;2023-06-24T06:43:26;98803.56;;;20.71;0.00
23318;BME280;11831;55.918;37.746;2023-06-24T06:45:52;98793.12;;;21.18;0.00
23318;BME280;11831;55.918;37.746;2023-06-24T06:48:19;98780.53;;;20.69;0.00
23318;BME280;11831;55.918;37.746;2023-06-24T06:50:46;98792.25;;;20.78;0.00
23318;BME280;11831;55.918;37.746;2023-06-24T06:53:12;98807.78;;;20.55;0.00
23318;BME280;11831;55.918;37.746;2023-06-24T06:55:39;98804.69;;;21.01;0.00
23318;BME280;11831;55.918;37.746;2023-06-24T06:58:05;98786.56;;;21.50;0.00
23318;BME280;11831;55.918;37.746;2023-06-24T07:00:32;98796.81;;;21.22;0.00
23318;BME280;11831;55.918;37.746;2023-06-24T07:02:58;98794.63;;;21.24;0.00
23318;BME280;11831;55.918;37.746;2023-06-24T07:05:25;98796.37;;;20.31;0.00
23318;BME280;11831;55.918;37.746;2023-06-24T07:07:51;98797.97;;;19.82;0.00
23318;BME280;11831;55.918;37.746;2023-06-24T07:10:20;98822.00;;;19.34;0.00
23318;BME280;11831;55.918;37.746;2023-06-24T07:12:46;98813.41;;;18.99;0.00
23318;BME280;11831;55.918;37.746;2023-06-24T07:15:13;98816.78;;;20.28;0.00
23318;BME280;11831;55.918;37.746;2023-06-24T07:17:40;98821.09;;;19.38;0.00
23318;BME280;11831;55.918;37.746;2023-06-24T07:20:07;98826.31;;;18.88;0.00
23318;BME280;11831;55.918;37.746;2023-06-24T07:22:34;98826.59;;;19.33;0.00
23318;BME280;11831;55.918;37.746;2023-06-24T07:25:00;98834.94;;;18.90;0.00
23318;BME280;11831;55.918;37.746;2023-06-24T07:27:26;98840.63;;;18.75;0.00
23318;BME280;11831;55.918;37.746;2023-06-24T07:29:53;98833.03;;;18.91;0.00
23318;BME280;11831;55.918;37.746;2023-06-24T07:32:20;98834.00;;;19.14;0.00
23318;BME280;11831;55.918;37.746;2023-06-24T07:34:46;98847.38;;;18.91;0.00
23318;BME280;11831;55.918;37.746;2023-06-24T07:37:13;98841.69;;;19.53;0.00
23318;BME280;11831;55.918;37.746;2023-06-24T07:39:40;98843.66;;;19.34;0.00
23318;BME280;11831;55.918;37.746;2023-06-24T07:42:07;98836.34;;;19.34;0.00
23318;BME280;11831;55.918;37.746;2023-06-24T07:44:33;98845.66;;;20.24;0.00
23318;BME280;11831;55.918;37.746;2023-06-24T07:46:59;98848.94;;;19.71;0.00
23318;BME280;11831;55.918;37.746;2023-06-24T07:49:26;98835.53;;;19.47;0.00
23318;BME280;11831;55.918;37.746;2023-06-24T07:51:52;98853.91;;;20.05;0.00
23318;BME280;11831;55.918;37.746;2023-06-24T07:54:19;98822.22;;;20.28;0.00
23318;BME280;11831;55.918;37.746;2023-06-24T07:56:45;98837.53;;;20.60;0.00
23318;BME280;11831;55.918;37.746;2023-06-24T07:59:12;98841.66;;;20.08;0.00
23318;BME280;11831;55.918;37.746;2023-06-24T08:01:38;98853.13;;;20.05;0.00
23318;BME280;11831;55.918;37.746;2023-06-24T08:04:04;98844.00;;;19.00;0.00
23318;BME280;11831;55.918;37.746;2023-06-24T08:06:31;98875.28;;;18.92;0.00
23318;BME280;11831;55.918;37.746;2023-06-24T08:08:57;98875.16;;;18.65;0.00
23318;BME280;11831;55.918;37.746;2023-06-24T08:11:24;98865.06;;;18.51;0.00
23318;BME280;11831;55.918;37.746;2023-06-24T08:13:50;98889.06;;;18.39;0.00
23318;BME280;11831;55.918;37.746;2023-06-24T08:16:17;98873.31;;;18.22;0.00
23318;BME280;11831;55.918;37.746;2023-06-24T08:18:46;98890.34;;;18.23;0.00
23318;BME280;11831;55.918;37.746;2023-06-24T08:21:13;98886.69;;;18.14;0.00
23318;BME280;11831;55.918;37.746;2023-06-24T08:23:40;98896.16;;;17.92;0.00
23318;BME280;11831;55.918;37.746;2023-06-24T08:26:07;98914.62;;;18.09;0.00
23318;BME280;11831;55.918;37.746;2023-06-24T08:28:34;98908.78;;;18.58;0.00
23318;BME280;11831;55.918;37.746;2023-06-24T08:31:01;98896.59;;;18.99;0.00
23318;BME280;11831;55.918;37.746;2023-06-24T08:33:28;98914.88;;;18.88;0.00
23318;BME280;11831;55.918;37.746;2023-06-24T08:35:54;98919.66;;;18.77;0.00
23318;BME280;11831;55.918;37.746;2023-06-24T08:38:21;98912.13;;;18.31;0.00
23318;BME280;11831;55.918;37.746;2023-06-24T08:40:49;98927.22;;;17.95;0.00
23318;BME280;11831;55.918;37.746;2023-06-24T08:43:16;98906.22;;;17.87;0.00
23318;BME280;11831;55.918;37.746;2023-06-24T08:45:42;98931.78;;;17.76;0.00
23318;BME280;11831;55.918;37.746;2023-06-24T08:48:09;98915.34;;;17.67;0.00
23318;BME280;11831;55.918;37.746;2023-06-24T08:50:40;98938.38;;;17.88;0.00
23318;BME280;11831;55.918;37.746;2023-06-24T08:53:09;98945.03;;;18.20;0.00
23318;BME280;11831;55.918;37.746;2023-06-24T08:55:40;98941.53;;;18.19;0.00
23318;BME280;11831;55.918;37.746;2023-06-24T08:58:09;98946.41;;;18.41;0.00
23318;BME280;11831;55.918;37.746;2023-06-24T09:00:35;98953.91;;;18.25;0.00
23318;BME280;11831;55.918;37.746;2023-06-24T09:03:02;98940.06;;;18.08;0.00
23318;BME280;11831;55.918;37.746;2023-06-24T09:05:29;98949.25;;;17.83;0.00
23318;BME280;11831;55.918;37.746;2023-06-24T09:07:55;98964.63;;;17.88;0.00
23318;BME280;11831;55.918;37.746;2023-06-24T09:10:33;98951.91;;;17.88;0.00
23318;BME280;11831;55.918;37.746;2023-06-24T09:13:00;98960.81;;;17.60;0.00
23318;BME280;11831;55.918;37.746;2023-06-24T09:15:31;98964.72;;;17.49;0.00
23318;BME280;11831;55.918;37.746;2023-06-24T09:17:59;98962.25;;;17.52;0.00
23318;BME280;11831;55.918;37.746;2023-06-24T09:20:32;98974.31;;;17.31;0.00
23318;BME280;11831;55.918;37.746;2023-06-24T09:23:04;98982.88;;;17.72;0.00
23318;BME280;11831;55.918;37.746;2023-06-24T09:25:31;98997.69;;;18.04;0.00
23318;BME280;11831;55.918;37.746;2023-06-24T09:28:01;99002.87;;;17.76;0.00
23318;BME280;11831;55.918;37.746;2023-06-24T09:30:28;98995.97;;;17.89;0.00
23318;BME280;11831;55.918;37.746;2023-06-24T09:32:56;98989.94;;;17.97;0.00
23318;BME280;11831;55.918;37.746;2023-06-24T09:35:24;98987.22;;;18.45;0.00
23318;BME280;11831;55.918;37.746;2023-06-24T09:37:55;98978.88;;;18.60;0.00
23318;BME280;11831;55.918;37.746;2023-06-24T09:40:24;98987.72;;;18.47;0.00
23318;BME280;11831;55.918;37.746;2023-06-24T09:42:54;98998.22;;;18.29;0.00
23318;BME280;11831;55.918;37.746;2023-06-24T09:45:22;99000.06;;;17.86;0.00
23318;BME280;11831;55.918;37.746;2023-06-24T09:47:49;99013.94;;;18.04;0.00
23318;BME280;11831;55.918;37.746;2023-06-24T09:50:16;99022.50;;;17.87;0.00
23318;BME280;11831;55.918;37.746;2023-06-24T09:52:44;99019.97;;;17.95;0.00
23318;BME280;11831;55.918;37.746;2023-06-24T09:55:15;99029.16;;;17.65;0.00
23318;BME280;11831;55.918;37.746;2023-06-24T09:57:45;99018.69;;;17.88;0.00
23318;BME280;11831;55.918;37.746;2023-06-24T10:00:14;99022.56;;;18.06;0.00
23318;BME280;11831;55.918;37.746;2023-06-24T10:02:42;99032.72;;;18.19;0.00
23318;BME280;11831;55.918;37.746;2023-06-24T10:05:09;99035.72;;;17.88;0.00
23318;BME280;11831;55.918;37.746;2023-06-24T10:07:36;99040.16;;;17.79;0.00
23318;BME280;11831;55.918;37.746;2023-06-24T10:10:05;99044.41;;;18.14;0.00
23318;BME280;11831;55.918;37.746;2023-06-24T10:12:34;99044.75;;;18.08;0.00
23318;BME280;11831;55.918;37.746;2023-06-24T10:15:01;99040.34;;;18.36;0.00
23318;BME280;11831;55.918;37.746;2023-06-24T10:17:36;99048.22;;;18.37;0.00
23318;BME280;11831;55.918;37.746;2023-06-24T10:20:04;99044.91;;;18.64;0.00
23318;BME280;11831;55.918;37.746;2023-06-24T10:22:34;99061.31;;;18.25;0.00
23318;BME280;11831;55.918;37.746;2023-06-24T10:25:06;99058.91;;;18.23;0.00
23318;BME280;11831;55.918;37.746;2023-06-24T10:27:39;99059.38;;;18.02;0.00
23318;BME280;11831;55.918;37.746;2023-06-24T10:30:07;99065.72;;;17.92;0.00
23318;BME280;11831;55.918;37.746;2023-06-24T10:32:44;99069.41;;;18.01;0.00
23318;BME280;11831;55.918;37.746;2023-06-24T10:35:30;99071.06;;;18.50;0.00
23318;BME280;11831;55.918;37.746;2023-06-24T10:38:00;99070.41;;;18.34;0.00
23318;BME280;11831;55.918;37.746;2023-06-24T10:40:48;99071.16;;;18.69;0.00
23318;BME280;11831;55.918;37.746;2023-06-24T10:45:53;99078.25;;;18.59;0.00
23318;BME280;11831;55.918;37.746;2023-06-24T10:48:20;99064.03;;;18.49;0.00
23318;BME280;11831;55.918;37.746;2023-06-24T10:50:47;99061.56;;;18.95;0.00
23318;BME280;11831;55.918;37.746;2023-06-24T10:53:16;99067.12;;;18.61;0.00
23318;BME280;11831;55.918;37.746;2023-06-24T10:55:46;99064.88;;;18.73;0.00
23318;BME280;11831;55.918;37.746;2023-06-24T10:58:16;99065.97;;;18.72;0.00
23318;BME280;11831;55.918;37.746;2023-06-24T11:00:43;99059.75;;;19.28;0.00
23318;BME280;11831;55.918;37.746;2023-06-24T11:03:13;99059.47;;;19.30;0.00
23318;BME280;11831;55.918;37.746;2023-06-24T11:05:44;99062.28;;;19.76;0.00
23318;BME280;11831;55.918;37.746;2023-06-24T11:08:11;99050.94;;;19.74;0.00
23318;BME280;11831;55.918;37.746;2023-06-24T11:10:48;99049.56;;;19.90;0.00
23318;BME280;11831;55.918;37.746;2023-06-24T11:13:15;99062.28;;;20.22;0.00
23318;BME280;11831;55.918;37.746;2023-06-24T11:15:46;99059.34;;;20.05;0.00
23318;BME280;11831;55.918;37.746;2023-06-24T11:18:12;99051.59;;;19.98;0.00
23318;BME280;11831;55.918;37.746;2023-06-24T11:20:39;99055.53;;;20.20;0.00
23318;BME280;11831;55.918;37.746;2023-06-24T11:23:07;99060.84;;;20.11;0.00
23318;BME280;11831;55.918;37.746;2023-06-24T11:25:39;99064.37;;;20.11;0.00
23318;BME280;11831;55.918;37.746;2023-06-24T11:28:18;99053.44;;;20.30;0.00
23318;BME280;11831;55.918;37.746;2023-06-24T11:30:45;99051.34;;;20.68;0.00
23318;BME280;11831;55.918;37.746;2023-06-24T11:33:12;99051.66;;;20.53;0.00
23318;BME280;11831;55.918;37.746;2023-06-24T11:35:39;99055.47;;;20.66;0.00
23318;BME280;11831;55.918;37.746;2023-06-24T11:38:05;99056.66;;;20.32;0.00
23318;BME280;11831;55.918;37.746;2023-06-24T11:40:34;99053.53;;;20.39;0.00
23318;BME280;11831;55.918;37.746;2023-06-24T11:43:00;99062.72;;;20.70;0.00
23318;BME280;11831;55.918;37.746;2023-06-24T11:45:28;99068.94;;;20.71;0.00
23318;BME280;11831;55.918;37.746;2023-06-24T11:48:02;99065.56;;;20.52;0.00
23318;BME280;11831;55.918;37.746;2023-06-24T11:50:31;99075.47;;;20.29;0.00
23318;BME280;11831;55.918;37.746;2023-06-24T11:52:57;99074.88;;;20.45;0.00
23318;BME280;11831;55.918;37.746;2023-06-24T11:55:26;99084.66;;;20.14;0.00
23318;BME280;11831;55.918;37.746;2023-06-24T11:58:02;99085.41;;;20.33;0.00
23318;BME280;11831;55.918;37.746;2023-06-24T12:00:35;99079.84;;;19.97;0.00
23318;BME280;11831;55.918;37.746;2023-06-24T12:03:05;99088.38;;;20.04;0.00
23318;BME280;11831;55.918;37.746;2023-06-24T12:05:34;99088.94;;;19.88;0.00
23318;BME280;11831;55.918;37.746;2023-06-24T12:08:09;99094.28;;;19.60;0.00
23318;BME280;11831;55.918;37.746;2023-06-24T12:10:37;99095.91;;;19.94;0.00
23318;BME280;11831;55.918;37.746;2023-06-24T12:13:05;99097.88;;;19.88;0.00
23318;BME280;11831;55.918;37.746;2023-06-24T12:15:35;99089.81;;;19.83;0.00
23318;BME280;11831;55.918;37.746;2023-06-24T12:18:02;99096.75;;;19.38;0.00
23318;BME280;11831;55.918;37.746;2023-06-24T12:20:29;99097.34;;;19.53;0.00
23318;BME280;11831;55.918;37.746;2023-06-24T12:22:57;99107.03;;;19.60;0.00
23318;BME280;11831;55.918;37.746;2023-06-24T12:25:24;99104.94;;;19.51;0.00
23318;BME280;11831;55.918;37.746;2023-06-24T12:27:50;99101.28;;;19.80;0.00
23318;BME280;11831;55.918;37.746;2023-06-24T12:30:17;99114.91;;;19.75;0.00
23318;BME280;11831;55.918;37.746;2023-06-24T12:32:44;99110.81;;;19.59;0.00
23318;BME280;11831;55.918;37.746;2023-06-24T12:35:12;99102.97;;;19.57;0.00
23318;BME280;11831;55.918;37.746;2023-06-24T12:37:39;99105.53;;;19.48;0.00
23318;BME280;11831;55.918;37.746;2023-06-24T12:40:06;99109.91;;;19.82;0.00
23318;BME280;11831;55.918;37.746;2023-06-24T12:42:33;99082.56;;;21.07;0.00
23318;BME280;11831;55.918;37.746;2023-06-24T12:45:00;99065.16;;;23.85;0.00
23318;BME280;11831;55.918;37.746;2023-06-24T12:47:30;99057.78;;;24.41;0.00
23318;BME280;11831;55.918;37.746;2023-06-24T12:49:56;99060.62;;;26.57;0.00
23318;BME280;11831;55.918;37.746;2023-06-24T12:52:23;99042.38;;;27.53;0.00
23318;BME280;11831;55.918;37.746;2023-06-24T12:54:49;99046.25;;;29.06;0.00
23318;BME280;11831;55.918;37.746;2023-06-24T12:57:16;99047.94;;;28.29;0.00
23318;BME280;11831;55.918;37.746;2023-06-24T12:59:43;99049.97;;;27.44;0.00
23318;BME280;11831;55.918;37.746;2023-06-24T13:02:09;99049.25;;;27.47;0.00
23318;BME280;11831;55.918;37.746;2023-06-24T13:04:36;99047.84;;;25.91;0.00
23318;BME280;11831;55.918;37.746;2023-06-24T13:07:03;99051.34;;;25.59;0.00
23318;BME280;11831;55.918;37.746;2023-06-24T13:09:31;99055.00;;;25.30;0.00
23318;BME280;11831;55.918;37.746;2023-06-24T13:11:58;99051.97;;;24.52;0.00
23318;BME280;11831;55.918;37.746;2023-06-24T13:14:24;99058.06;;;24.02;0.00